createdAt,value
2022-08-08T00:00:56.575Z,99320.09
2022-08-08T00:01:22.648Z,99314.31
2022-08-08T00:03:31.773Z,99306.63
2022-08-08T00:05:13.719Z,99314.66
2022-08-08T00:06:59.150Z,99325.63
2022-08-08T00:08:50.296Z,99328.56
2022-08-08T00:10:30.058Z,99315.13
2022-08-08T00:12:10.668Z,99319.88
2022-08-08T00:14:17.005Z,99321.09
2022-08-08T00:16:03.389Z,99319.47
2022-08-08T00:18:02.338Z,99323.13
2022-08-08T00:19:46.735Z,99328.84
2022-08-08T00:21:39.612Z,99327.25
2022-08-08T00:23:28.520Z,99325.53
2022-08-08T00:25:23.412Z,99334.59
2022-08-08T00:27:02.692Z,99333.09
2022-08-08T00:28:46.086Z,99332.22
2022-08-08T00:30:20.081Z,99329.22
2022-08-08T00:32:20.395Z,99341.66
2022-08-08T00:34:20.449Z,99334.59
2022-08-08T00:36:02.283Z,99332.63
2022-08-08T00:37:48.149Z,99328.97
2022-08-08T00:41:07.688Z,99333.16
2022-08-08T00:42:34.621Z,99334.34
2022-08-08T00:44:46.561Z,99322.34
2022-08-08T00:47:19.459Z,99336.41
2022-08-08T00:49:27.221Z,99324.28
2022-08-08T00:51:51.776Z,99333.53
2022-08-08T00:53:57.096Z,99341.06
2022-08-08T00:56:22.101Z,99340.00
2022-08-08T00:58:30.846Z,99348.06
2022-08-08T01:00:11.444Z,99345.38
2022-08-08T01:02:01.539Z,99345.16
2022-08-08T01:04:21.690Z,99342.97
2022-08-08T01:06:47.533Z,99351.53
2022-08-08T01:09:34.764Z,99345.03
2022-08-08T01:11:58.614Z,99354.59
2022-08-08T01:14:53.956Z,99348.13
2022-08-08T01:16:50.931Z,99350.97
2022-08-08T01:19:13.560Z,99351.66
2022-08-08T01:22:12.308Z,99353.69
2022-08-08T01:24:16.886Z,99355.97
2022-08-08T01:26:24.339Z,99349.31
2022-08-08T01:28:36.862Z,99353.41
2022-08-08T01:30:53.434Z,99352.81
2022-08-08T01:33:28.081Z,99365.00
2022-08-08T01:35:47.806Z,99351.28
2022-08-08T01:38:02.155Z,99360.53
2022-08-08T01:40:02.550Z,99361.25
2022-08-08T01:41:49.813Z,99352.16
2022-08-08T01:43:38.682Z,99354.72
2022-08-08T01:45:34.098Z,99355.13
2022-08-08T01:48:15.068Z,99357.91
2022-08-08T01:49:23.411Z,99351.03
2022-08-08T01:52:27.692Z,99353.19
2022-08-08T01:55:16.719Z,99356.84
2022-08-08T01:56:29.779Z,99363.28
2022-08-08T01:58:13.027Z,99363.28
2022-08-08T02:00:03.710Z,99367.69
2022-08-08T02:02:42.762Z,99346.34
2022-08-08T02:04:33.823Z,99354.06
2022-08-08T02:06:33.174Z,99362.88
2022-08-08T02:08:34.061Z,99351.19
2022-08-08T02:10:37.152Z,99353.88
2022-08-08T02:12:25.569Z,99357.28
2022-08-08T02:14:04.825Z,99360.72
2022-08-08T02:15:48.928Z,99360.53
2022-08-08T02:17:36.521Z,99365.88
2022-08-08T02:19:26.793Z,99362.03
2022-08-08T02:21:42.135Z,99363.72
2022-08-08T02:23:31.978Z,99366.31
2022-08-08T02:25:17.255Z,99366.41
2022-08-08T02:26:58.185Z,99366.09
2022-08-08T02:28:51.872Z,99362.31
2022-08-08T02:30:39.327Z,99364.56
2022-08-08T02:32:41.399Z,99367.34
2022-08-08T02:34:32.641Z,99372.91
2022-08-08T02:36:32.357Z,99370.81
2022-08-08T02:38:39.540Z,99366.06
2022-08-08T02:40:27.995Z,99370.69
2022-08-08T02:42:42.058Z,99372.50
2022-08-08T02:44:57.806Z,99376.69
2022-08-08T02:46:56.061Z,99377.56
2022-08-08T02:49:03.508Z,99372.72
2022-08-08T02:51:04.133Z,99367.16
2022-08-08T02:53:04.372Z,99378.72
2022-08-08T02:55:19.952Z,99381.53
2022-08-08T02:57:52.253Z,99379.59
2022-08-08T03:00:27.110Z,99378.31
2022-08-08T03:02:38.082Z,99385.63
2022-08-08T03:05:03.953Z,99378.09
2022-08-08T03:07:41.219Z,99379.41
2022-08-08T03:10:17.945Z,99384.75
2022-08-08T03:13:01.801Z,99390.34
2022-08-08T03:16:03.869Z,99391.50
2022-08-08T03:16:52.354Z,99405.13
2022-08-08T03:18:34.390Z,99387.94
2022-08-08T03:20:10.577Z,99392.56
2022-08-08T03:21:58.844Z,99404.91
2022-08-08T03:23:39.852Z,99396.75
2022-08-08T03:25:34.028Z,99402.13
2022-08-08T03:27:21.796Z,99404.69
2022-08-08T03:29:18.470Z,99413.06
2022-08-08T03:31:07.815Z,99410.28
2022-08-08T03:33:56.756Z,99413.69
2022-08-08T03:35:15.763Z,99420.13
2022-08-08T03:36:49.631Z,99423.78
2022-08-08T03:38:57.456Z,99413.06
2022-08-08T03:40:30.621Z,99419.59
2022-08-08T03:42:12.420Z,99421.78
2022-08-08T03:44:02.760Z,99421.13
2022-08-08T03:46:05.789Z,99425.38
2022-08-08T03:47:39.651Z,99420.41
2022-08-08T03:49:58.301Z,99418.50
2022-08-08T03:51:19.451Z,99426.97
2022-08-08T03:53:04.461Z,99430.09
2022-08-08T03:54:41.684Z,99429.59
2022-08-08T03:56:30.006Z,99423.72
2022-08-08T03:58:35.722Z,99432.75
2022-08-08T04:00:17.364Z,99426.56
2022-08-08T04:02:12.796Z,99433.88
2022-08-08T04:03:58.388Z,99426.56
2022-08-08T04:05:48.962Z,99405.09
2022-08-08T04:07:26.027Z,99426.97
2022-08-08T04:09:06.774Z,99428.16
2022-08-08T04:10:48.127Z,99428.94
2022-08-08T04:12:35.032Z,99439.22
2022-08-08T04:14:33.510Z,99439.22
2022-08-08T04:16:05.498Z,99444.16
2022-08-08T04:17:58.868Z,99445.25
2022-08-08T04:19:36.744Z,99449.72
2022-08-08T04:21:10.807Z,99439.44
2022-08-08T04:22:46.043Z,99437.94
2022-08-08T04:24:29.190Z,99455.53
2022-08-08T04:26:09.326Z,99438.78
2022-08-08T04:28:34.471Z,99448.03
2022-08-08T04:29:39.015Z,99450.41
2022-08-08T04:31:57.036Z,99451.47
2022-08-08T04:33:23.277Z,99450.69
2022-08-08T04:34:58.527Z,99453.19
2022-08-08T04:36:37.711Z,99453.91
2022-08-08T04:38:11.293Z,99454.88
2022-08-08T04:40:06.698Z,99454.06
2022-08-08T04:41:47.381Z,99464.81
2022-08-08T04:43:31.710Z,99459.22
2022-08-08T04:45:23.083Z,99444.00
2022-08-08T04:46:58.069Z,99463.78
2022-08-08T04:48:31.715Z,99469.56
2022-08-08T04:50:07.970Z,99472.88
2022-08-08T04:51:58.665Z,99471.06
2022-08-08T04:54:36.479Z,99466.78
2022-08-08T04:55:26.451Z,99464.19
2022-08-08T04:57:13.408Z,99464.63
2022-08-08T04:58:50.521Z,99475.13
2022-08-08T05:00:25.527Z,99468.38
2022-08-08T05:02:00.759Z,99471.69
2022-08-08T05:04:09.670Z,99468.88
2022-08-08T05:05:44.537Z,99474.69
2022-08-08T05:07:20.491Z,99463.78
2022-08-08T05:08:54.536Z,99469.03
2022-08-08T05:10:30.551Z,99473.25
2022-08-08T05:12:06.831Z,99474.06
2022-08-08T05:13:57.686Z,99463.72
2022-08-08T05:16:54.355Z,99476.13
2022-08-08T05:17:37.325Z,99475.72
2022-08-08T05:20:12.761Z,99466.47
2022-08-08T05:21:19.656Z,99470.69
2022-08-08T05:22:54.575Z,99465.66
2022-08-08T05:24:37.310Z,99487.31
2022-08-08T05:26:14.075Z,99483.31
2022-08-08T05:27:48.340Z,99480.56
2022-08-08T05:29:21.688Z,99478.41
2022-08-08T05:31:08.594Z,99463.00
2022-08-08T05:32:54.031Z,99464.28
2022-08-08T05:34:36.283Z,99460.91
2022-08-08T05:36:11.973Z,99456.63
2022-08-08T05:38:04.765Z,99446.38
2022-08-08T05:40:04.727Z,99455.81
2022-08-08T05:41:54.679Z,99449.19
2022-08-08T05:43:39.534Z,99448.25
2022-08-08T05:45:41.439Z,99446.88
2022-08-08T05:47:21.025Z,99438.41
2022-08-08T05:48:56.578Z,99432.31
2022-08-08T05:50:36.155Z,99447.47
2022-08-08T05:52:10.424Z,99437.03
2022-08-08T05:54:24.714Z,99431.94
2022-08-08T05:56:10.655Z,99437.28
2022-08-08T05:58:05.256Z,99429.38
2022-08-08T05:59:53.634Z,99408.25
2022-08-08T06:01:58.046Z,99423.81
2022-08-08T06:03:37.029Z,99414.63
2022-08-08T06:05:33.977Z,99417.91
2022-08-08T06:07:12.177Z,99420.34
2022-08-08T06:08:54.967Z,99412.72
2022-08-08T06:10:34.831Z,99413.28
2022-08-08T06:12:14.457Z,99408.75
2022-08-08T06:13:52.558Z,99409.41
2022-08-08T06:15:49.869Z,99400.41
2022-08-08T06:17:32.161Z,99408.06
2022-08-08T06:19:25.552Z,99402.13
2022-08-08T06:21:27.895Z,99398.16
2022-08-08T06:22:58.664Z,99391.69
2022-08-08T06:24:40.562Z,99395.63
2022-08-08T06:26:41.402Z,99402.56
2022-08-08T06:28:29.429Z,99391.53
2022-08-08T06:30:07.402Z,99395.81
2022-08-08T06:32:11.428Z,99390.69
2022-08-08T06:34:25.706Z,99382.13
2022-08-08T06:36:07.431Z,99386.03
2022-08-08T06:37:51.050Z,99392.47
2022-08-08T06:39:34.072Z,99375.84
2022-08-08T06:41:13.215Z,99377.19
2022-08-08T06:42:54.652Z,99389.53
2022-08-08T06:44:35.381Z,99374.47
2022-08-08T06:46:12.771Z,99369.16
2022-08-08T06:47:58.169Z,99375.59
2022-08-08T06:49:55.580Z,99374.09
2022-08-08T06:51:46.937Z,99364.69
2022-08-08T06:53:39.218Z,99359.44
2022-08-08T06:55:16.706Z,99366.00
2022-08-08T06:56:52.895Z,99357.63
2022-08-08T06:58:30.929Z,99365.53
2022-08-08T07:00:12.249Z,99359.63
2022-08-08T07:02:26.264Z,99371.69
2022-08-08T07:04:36.964Z,99371.44
2022-08-08T07:05:52.802Z,99360.25
2022-08-08T07:07:51.439Z,99367.03
2022-08-08T07:09:41.475Z,99366.03
2022-08-08T07:11:22.939Z,99362.34
2022-08-08T07:13:03.935Z,99356.38
2022-08-08T07:14:51.916Z,99355.91
2022-08-08T07:16:37.711Z,99352.44
2022-08-08T07:18:42.112Z,99358.19
2022-08-08T07:20:21.129Z,99357.94
2022-08-08T07:22:12.086Z,99362.22
2022-08-08T07:24:09.545Z,99363.41
2022-08-08T07:26:06.785Z,99358.81
2022-08-08T07:28:00.468Z,99359.63
2022-08-08T07:30:00.935Z,99359.16
2022-08-08T07:31:35.272Z,99357.16
2022-08-08T07:33:11.947Z,99351.66
2022-08-08T07:35:00.923Z,99363.22
2022-08-08T07:36:48.078Z,99358.41
2022-08-08T07:38:28.407Z,99364.53
2022-08-08T07:40:11.549Z,99358.00
2022-08-08T07:42:05.288Z,99361.59
2022-08-08T07:43:42.288Z,99358.22
2022-08-08T07:45:26.536Z,99353.06
2022-08-08T07:47:09.208Z,99348.47
2022-08-08T07:48:43.031Z,99347.13
2022-08-08T07:50:21.932Z,99358.06
2022-08-08T07:51:58.002Z,99356.38
2022-08-08T07:54:00.708Z,99351.09
2022-08-08T07:55:36.676Z,99352.63
2022-08-08T07:57:24.854Z,99348.91
2022-08-08T07:59:04.161Z,99349.75
2022-08-08T08:00:43.279Z,99348.22
2022-08-08T08:02:34.682Z,99346.03
2022-08-08T08:04:16.350Z,99345.44
2022-08-08T08:05:53.374Z,99348.50
2022-08-08T08:07:37.848Z,99333.34
2022-08-08T08:09:26.464Z,99335.94
2022-08-08T08:11:04.053Z,99324.97
2022-08-08T08:12:43.280Z,99335.97
2022-08-08T08:14:25.110Z,99334.28
2022-08-08T08:16:03.931Z,99327.06
2022-08-08T08:17:48.179Z,99328.34
2022-08-08T08:19:32.116Z,99333.88
2022-08-08T08:21:44.196Z,99330.03
2022-08-08T08:23:17.973Z,99327.91
2022-08-08T08:24:51.938Z,99308.91
2022-08-08T08:26:29.200Z,99313.75
2022-08-08T08:28:03.353Z,99314.38
2022-08-08T08:29:37.093Z,99323.91
2022-08-08T08:31:12.096Z,99320.72
2022-08-08T08:32:51.162Z,99321.59
2022-08-08T08:34:32.486Z,99316.91
2022-08-08T08:36:19.424Z,99320.19
2022-08-08T08:38:16.195Z,99320.69
2022-08-08T08:40:01.215Z,99327.06
2022-08-08T08:41:42.317Z,99317.25
2022-08-08T08:43:26.831Z,99324.38
2022-08-08T08:45:21.030Z,99326.22
2022-08-08T08:46:59.911Z,99311.44
2022-08-08T08:48:35.749Z,99317.84
2022-08-08T08:50:17.162Z,99310.34
2022-08-08T08:52:04.881Z,99310.47
2022-08-08T08:53:56.109Z,99301.09
2022-08-08T08:55:40.479Z,99307.16
2022-08-08T08:57:17.686Z,99309.66
2022-08-08T08:58:55.042Z,99312.13
2022-08-08T09:01:04.993Z,99300.81
2022-08-08T09:02:33.643Z,99303.00
2022-08-08T09:04:30.281Z,99301.47
2022-08-08T09:06:05.340Z,99291.97
2022-08-08T09:08:18.207Z,99284.06
2022-08-08T09:09:57.525Z,99294.63
2022-08-08T09:11:47.719Z,99286.66
2022-08-08T09:13:40.081Z,99290.28
2022-08-08T09:15:15.027Z,99285.19
2022-08-08T09:17:14.256Z,99287.97
2022-08-08T09:18:51.681Z,99276.75
2022-08-08T09:22:01.168Z,99284.38
2022-08-08T09:22:26.626Z,99277.66
2022-08-08T09:24:02.389Z,99282.94
2022-08-08T09:25:54.912Z,99276.44
2022-08-08T09:27:57.608Z,99277.50
2022-08-08T09:29:32.494Z,99279.22
2022-08-08T09:31:14.054Z,99266.81
2022-08-08T09:33:54.963Z,99266.72
2022-08-08T09:34:52.025Z,99262.84
2022-08-08T09:36:31.273Z,99253.63
2022-08-08T09:38:09.620Z,99258.06
2022-08-08T09:40:01.010Z,99253.53
2022-08-08T09:42:14.501Z,99250.03
2022-08-08T09:44:04.596Z,99252.34
2022-08-08T09:46:00.724Z,99249.50
2022-08-08T09:48:12.646Z,99245.50
2022-08-08T09:49:42.640Z,99232.19
2022-08-08T09:51:23.341Z,99229.00
2022-08-08T09:53:02.233Z,99235.06
2022-08-08T09:54:45.804Z,99237.47
2022-08-08T09:56:24.779Z,99237.78
2022-08-08T09:58:07.193Z,99234.50
2022-08-08T10:00:02.044Z,99230.13
2022-08-08T10:02:02.267Z,99218.75
2022-08-08T10:03:40.063Z,99215.31
2022-08-08T10:05:22.854Z,99217.66
2022-08-08T10:06:59.177Z,99221.09
2022-08-08T10:08:33.824Z,99224.06
2022-08-08T10:10:09.850Z,99222.41
2022-08-08T10:12:26.896Z,99218.25
2022-08-08T10:13:57.273Z,99223.34
2022-08-08T10:15:39.511Z,99216.63
2022-08-08T10:17:57.161Z,99209.88
2022-08-08T10:19:11.308Z,99206.06
2022-08-08T10:20:57.895Z,99198.59
2022-08-08T10:22:37.030Z,99204.34
2022-08-08T10:24:34.882Z,99206.44
2022-08-08T10:26:25.899Z,99203.03
2022-08-08T10:28:05.358Z,99184.88
2022-08-08T10:29:56.960Z,99205.09
2022-08-08T10:31:51.488Z,99197.88
2022-08-08T10:33:38.374Z,99185.81
2022-08-08T10:36:07.137Z,99185.19
2022-08-08T10:37:28.629Z,99188.13
2022-08-08T10:39:07.253Z,99189.38
2022-08-08T10:40:45.389Z,99189.81
2022-08-08T10:42:21.163Z,99178.38
2022-08-08T10:44:01.154Z,99181.19
2022-08-08T10:45:55.936Z,99183.06
2022-08-08T10:47:44.010Z,99175.06
2022-08-08T10:49:26.797Z,99166.22
2022-08-08T10:51:18.722Z,99169.84
2022-08-08T10:53:03.337Z,99162.66
2022-08-08T10:54:41.410Z,99159.50
2022-08-08T10:56:27.373Z,99159.50
2022-08-08T10:58:06.952Z,99163.72
2022-08-08T10:59:40.815Z,99158.19
2022-08-08T11:01:15.869Z,99166.25
2022-08-08T11:02:50.415Z,99154.84
2022-08-08T11:04:29.695Z,99159.06
2022-08-08T11:06:14.092Z,99159.50
2022-08-08T11:08:37.833Z,99164.34
2022-08-08T11:09:48.114Z,99158.84
2022-08-08T11:11:31.625Z,99167.09
2022-08-08T11:13:28.399Z,99170.91
2022-08-08T11:15:01.569Z,99158.41
2022-08-08T11:16:37.348Z,99167.13
2022-08-08T11:18:11.686Z,99165.81
2022-08-08T11:19:52.709Z,99155.69
2022-08-08T11:21:35.073Z,99147.22
2022-08-08T11:23:10.077Z,99153.16
2022-08-08T11:24:45.805Z,99153.16
2022-08-08T11:26:27.454Z,99149.94
2022-08-08T11:28:04.207Z,99142.09
2022-08-08T11:29:50.934Z,99146.41
2022-08-08T11:31:46.879Z,99137.69
2022-08-08T11:33:51.107Z,99142.09
2022-08-08T11:35:27.201Z,99145.53
2022-08-08T11:37:15.464Z,99143.00
2022-08-08T11:38:55.397Z,99143.38
2022-08-08T11:40:31.614Z,99149.34
2022-08-08T11:42:09.215Z,99143.38
2022-08-08T11:43:43.798Z,99135.81
2022-08-08T11:45:23.861Z,99134.13
2022-08-08T11:46:58.144Z,99140.88
2022-08-08T11:48:33.046Z,99124.78
2022-08-08T11:50:09.988Z,99122.25
2022-08-08T11:51:49.577Z,99129.25
2022-08-08T11:53:26.420Z,99126.31
2022-08-08T11:54:59.865Z,99134.94
2022-08-08T11:56:34.565Z,99147.22
2022-08-08T11:58:15.273Z,99134.97
2022-08-08T11:59:58.253Z,99134.75
2022-08-08T12:01:45.990Z,99133.69
2022-08-08T12:03:24.885Z,99128.84
2022-08-08T12:05:06.770Z,99130.97
2022-08-08T12:06:42.895Z,99123.16
2022-08-08T12:08:18.769Z,99127.75
2022-08-08T12:09:59.552Z,99126.06
2022-08-08T12:11:44.286Z,99117.63
2022-08-08T12:13:38.218Z,99125.66
2022-08-08T12:15:29.030Z,99120.56
2022-08-08T12:17:02.637Z,99123.13
2022-08-08T12:18:46.463Z,99099.44
2022-08-08T12:20:19.870Z,99098.56
2022-08-08T12:21:59.646Z,99124.41
2022-08-08T12:23:59.532Z,99112.50
2022-08-08T12:25:38.236Z,99105.34
2022-08-08T12:27:18.889Z,99107.91
2022-08-08T12:28:56.915Z,99102.84
2022-08-08T12:30:33.939Z,99101.97
2022-08-08T12:32:13.352Z,99108.94
2022-08-08T12:34:02.574Z,99104.72
2022-08-08T12:35:40.728Z,99110.44
2022-08-08T12:37:40.471Z,99096.25
2022-08-08T12:40:01.070Z,99089.72
2022-08-08T12:41:35.036Z,99093.06
2022-08-08T12:43:20.405Z,99096.88
2022-08-08T12:45:53.694Z,99094.75
2022-08-08T12:47:01.064Z,99091.81
2022-08-08T12:48:38.647Z,99086.75
2022-08-08T12:50:12.454Z,99088.41
2022-08-08T12:51:58.989Z,99075.09
2022-08-08T12:53:42.024Z,99079.53
2022-08-08T12:55:29.240Z,99076.59
2022-08-08T12:57:17.300Z,99071.53
2022-08-08T12:58:54.250Z,99074.47
2022-08-08T13:00:39.079Z,99073.66
2022-08-08T13:02:28.394Z,99069.81
2022-08-08T13:04:02.341Z,99064.75
2022-08-08T13:06:03.631Z,99070.25
2022-08-08T13:08:03.580Z,99069.19
2022-08-08T13:09:43.165Z,99059.03
2022-08-08T13:12:04.182Z,99063.88
2022-08-08T13:13:37.123Z,99055.84
2022-08-08T13:15:13.679Z,99058.38
2022-08-08T13:16:49.219Z,99063.06
2022-08-08T13:18:27.237Z,99058.19
2022-08-08T13:20:06.383Z,99057.13
2022-08-08T13:21:53.145Z,99060.50
2022-08-08T13:23:46.299Z,99049.94
2022-08-08T13:25:22.362Z,99041.06
2022-08-08T13:27:05.139Z,99045.25
2022-08-08T13:28:45.692Z,99044.22
2022-08-08T13:30:26.179Z,99038.50
2022-08-08T13:32:04.646Z,99045.88
2022-08-08T13:33:43.477Z,99043.19
2022-08-08T13:35:24.855Z,99044.88
2022-08-08T13:37:03.449Z,99038.78
2022-08-08T13:38:44.417Z,99042.38
2022-08-08T13:40:27.559Z,99050.81
2022-08-08T13:42:01.636Z,99042.78
2022-08-08T13:43:36.811Z,99053.75
2022-08-08T13:45:12.683Z,99051.25
2022-08-08T13:46:56.663Z,99037.72
2022-08-08T13:48:29.965Z,99047.81
2022-08-08T13:50:43.281Z,99046.50
2022-08-08T13:52:02.484Z,99041.47
2022-08-08T13:53:39.182Z,99039.34
2022-08-08T13:55:13.952Z,99037.47
2022-08-08T13:57:11.320Z,99044.03
2022-08-08T13:58:57.929Z,99032.63
2022-08-08T14:00:45.198Z,99022.09
2022-08-08T14:02:21.438Z,99029.25
2022-08-08T14:03:55.261Z,99017.00
2022-08-08T14:05:34.294Z,99020.81
2022-08-08T14:07:10.771Z,99019.13
2022-08-08T14:08:48.108Z,99003.94
2022-08-08T14:10:33.614Z,99021.25
2022-08-08T14:12:11.012Z,99018.28
2022-08-08T14:13:59.449Z,99014.03
2022-08-08T14:15:39.570Z,99012.75
2022-08-08T14:17:22.753Z,99028.41
2022-08-08T14:19:17.713Z,99001.34
2022-08-08T14:21:08.043Z,99008.97
2022-08-08T14:22:51.725Z,99014.91
2022-08-08T14:24:33.716Z,99016.59
2022-08-08T14:26:10.784Z,99005.00
2022-08-08T14:27:59.681Z,99017.00
2022-08-08T14:29:34.621Z,99004.75
2022-08-08T14:31:23.375Z,99006.44
2022-08-08T14:33:12.821Z,99003.91
2022-08-08T14:34:51.863Z,99000.09
2022-08-08T14:36:35.691Z,99004.75
2022-08-08T14:38:34.475Z,99000.09
2022-08-08T14:40:06.932Z,98990.41
2022-08-08T14:41:54.024Z,98989.97
2022-08-08T14:44:02.823Z,98986.38
2022-08-08T14:45:25.269Z,98990.38
2022-08-08T14:47:17.072Z,98993.13
2022-08-08T14:48:59.288Z,98992.50
2022-08-08T14:50:37.951Z,98991.66
2022-08-08T14:52:13.532Z,98992.50
2022-08-08T14:53:55.888Z,98995.88
2022-08-08T14:55:41.326Z,98993.31
2022-08-08T14:57:16.903Z,98992.94
2022-08-08T14:58:50.282Z,98995.91
2022-08-08T15:00:25.376Z,98993.78
2022-08-08T15:01:58.692Z,98976.84
2022-08-08T15:03:35.301Z,98982.31
2022-08-08T15:05:19.599Z,98987.81
2022-08-08T15:06:55.940Z,98986.13
2022-08-08T15:08:34.452Z,98986.94
2022-08-08T15:10:13.229Z,98977.22
2022-08-08T15:11:53.115Z,98972.53
2022-08-08T15:13:27.015Z,98971.25
2022-08-08T15:15:18.760Z,98971.69
2022-08-08T15:17:08.830Z,98960.66
2022-08-08T15:18:51.325Z,98965.09
2022-08-08T15:20:25.784Z,98966.56
2022-08-08T15:21:59.254Z,98972.88
2022-08-08T15:23:33.243Z,98971.19
2022-08-08T15:25:17.705Z,98980.44
2022-08-08T15:27:11.894Z,98972.88
2022-08-08T15:28:56.011Z,98970.53
2022-08-08T15:30:29.334Z,98967.78
2022-08-08T15:32:20.240Z,98972.41
2022-08-08T15:33:59.018Z,98964.44
2022-08-08T15:35:39.133Z,98967.38
2022-08-08T15:37:13.240Z,98972.88
2022-08-08T15:38:49.715Z,98959.78
2022-08-08T15:40:28.346Z,98960.25
2022-08-08T15:42:03.730Z,98967.84
2022-08-08T15:43:39.599Z,98967.84
2022-08-08T15:45:14.308Z,98967.84
2022-08-08T15:46:50.924Z,98968.66
2022-08-08T15:48:24.571Z,98966.13
2022-08-08T15:50:01.791Z,98974.75
2022-08-08T15:51:35.684Z,98971.59
2022-08-08T15:53:09.396Z,98971.53
2022-08-08T15:54:46.262Z,98970.22
2022-08-08T15:56:21.517Z,98965.13
2022-08-08T15:57:54.792Z,98970.00
2022-08-08T16:00:25.307Z,98981.81
2022-08-08T16:01:21.098Z,98974.00
2022-08-08T16:02:55.928Z,98945.44
2022-08-08T16:04:31.599Z,98971.84
2022-08-08T16:06:06.459Z,98974.81
2022-08-08T16:07:52.297Z,98961.88
2022-08-08T16:13:02.806Z,98975.56
2022-08-08T16:13:15.436Z,98984.06
2022-08-08T16:13:45.735Z,98974.28
2022-08-08T16:15:12.644Z,98977.25
2022-08-08T16:16:50.517Z,98971.38
2022-08-08T16:18:23.275Z,98978.56
2022-08-08T16:19:57.111Z,98976.84
2022-08-08T16:21:36.969Z,98977.25
2022-08-08T16:23:11.517Z,98969.28
2022-08-08T16:24:44.835Z,98965.44
2022-08-08T16:26:22.963Z,98986.91
2022-08-08T16:28:07.154Z,98975.94
2022-08-08T16:30:13.076Z,98988.56
2022-08-08T16:31:50.150Z,98976.72
2022-08-08T16:33:29.626Z,98983.88
2022-08-08T16:35:11.986Z,98982.56
2022-08-08T16:36:50.857Z,98981.56
2022-08-08T16:38:26.346Z,98988.03
2022-08-08T16:40:07.074Z,98991.81
2022-08-08T16:41:41.410Z,98984.47
2022-08-08T16:43:16.057Z,98991.47
2022-08-08T16:44:54.296Z,98977.41
2022-08-08T16:46:42.782Z,98995.19
2022-08-08T16:48:18.683Z,98988.16
2022-08-08T16:49:51.945Z,98984.50
2022-08-08T16:55:01.420Z,98988.69
2022-08-08T16:55:07.106Z,98983.06
2022-08-08T16:55:42.564Z,98990.28
2022-08-08T16:57:22.637Z,98990.94
2022-08-08T16:58:57.479Z,98994.50
2022-08-08T17:00:32.371Z,99001.44
2022-08-08T17:02:09.682Z,98997.84
2022-08-08T17:04:03.438Z,98999.31
2022-08-08T17:05:45.023Z,98996.94
2022-08-08T17:07:19.741Z,98999.47
2022-08-08T17:08:54.450Z,99008.72
2022-08-08T17:10:27.996Z,99004.19
2022-08-08T17:12:02.623Z,99008.78
2022-08-08T17:13:49.832Z,99006.94
2022-08-08T17:15:23.836Z,99003.44
2022-08-08T17:17:01.367Z,99005.84
2022-08-08T17:18:34.843Z,99010.31
2022-08-08T17:20:13.974Z,99014.75
2022-08-08T17:21:51.474Z,99007.41
2022-08-08T17:23:55.160Z,99013.44
2022-08-08T17:25:20.053Z,99010.72
2022-08-08T17:27:04.607Z,99007.31
2022-08-08T17:28:38.871Z,99017.56
2022-08-08T17:30:27.410Z,99013.53
2022-08-08T17:32:04.425Z,99019.03
2022-08-08T17:34:36.854Z,99026.19
2022-08-08T17:35:55.980Z,99028.63
2022-08-08T17:37:28.456Z,99031.25
2022-08-08T17:39:45.651Z,99034.13
2022-08-08T17:41:01.701Z,99037.53
2022-08-08T17:42:35.545Z,99041.97
2022-08-08T17:44:11.205Z,99047.25
2022-08-08T17:45:45.883Z,99052.53
2022-08-08T17:47:23.920Z,99050.00
2022-08-08T17:49:13.285Z,99058.03
2022-08-08T17:50:49.851Z,99059.72
2022-08-08T17:52:24.029Z,99066.88
2022-08-08T17:53:57.870Z,99068.88
2022-08-08T17:56:05.012Z,99073.59
2022-08-08T17:57:28.809Z,99077.34
2022-08-08T17:59:08.398Z,99073.59
2022-08-08T18:00:42.191Z,99085.50
2022-08-08T18:02:28.652Z,99083.50
2022-08-08T18:04:03.241Z,99081.44
2022-08-08T18:05:49.696Z,99079.94
2022-08-08T18:08:03.330Z,99084.19
2022-08-08T18:09:17.484Z,99095.06
2022-08-08T18:10:52.737Z,99088.97
2022-08-08T18:12:27.572Z,99098.44
2022-08-08T18:14:00.912Z,99097.13
2022-08-08T18:15:35.403Z,99099.13
2022-08-08T18:17:17.302Z,99096.06
2022-08-08T18:19:02.633Z,99096.72
2022-08-08T18:20:43.826Z,99099.97
2022-08-08T18:22:50.419Z,99105.19
2022-08-08T18:24:24.652Z,99102.78
2022-08-08T18:26:01.614Z,99101.44
2022-08-08T18:27:39.075Z,99103.47
2022-08-08T18:29:16.564Z,99105.81
2022-08-08T18:30:53.633Z,99104.47
2022-08-08T18:32:26.844Z,99109.22
2022-08-08T18:34:11.552Z,99110.81
2022-08-08T18:35:53.629Z,99109.97
2022-08-08T18:37:36.717Z,99116.56
2022-08-08T18:39:28.413Z,99118.59
2022-08-08T18:41:03.352Z,99122.66
2022-08-08T18:42:45.777Z,99114.81
2022-08-08T18:44:23.938Z,99117.84
2022-08-08T18:46:55.905Z,99118.72
2022-08-08T18:47:54.590Z,99117.84
2022-08-08T18:49:32.260Z,99123.63
2022-08-08T18:51:42.104Z,99124.47
2022-08-08T18:53:08.112Z,99123.63
2022-08-08T18:54:45.401Z,99121.91
2022-08-08T18:56:34.980Z,99119.88
2022-08-08T18:58:10.531Z,99138.00
2022-08-08T18:59:43.809Z,99136.13
2022-08-08T19:02:25.620Z,99137.81
2022-08-08T19:03:17.965Z,99144.31
2022-08-08T19:04:52.998Z,99143.59
2022-08-08T19:06:27.586Z,99135.06
2022-08-08T19:08:04.188Z,99143.13
2022-08-08T19:09:49.254Z,99149.56
2022-08-08T19:11:30.943Z,99146.53
2022-08-08T19:13:20.768Z,99153.59
2022-08-08T19:14:55.133Z,99148.56
2022-08-08T19:16:32.085Z,99151.66
2022-08-08T19:18:33.041Z,99145.91
2022-08-08T19:20:02.231Z,99150.00
2022-08-08T19:21:48.880Z,99151.84
2022-08-08T19:23:23.083Z,99148.66
2022-08-08T19:25:21.449Z,99154.94
2022-08-08T19:26:52.939Z,99153.72
2022-08-08T19:28:27.906Z,99163.59
2022-08-08T19:30:01.470Z,99160.47
2022-08-08T19:31:35.998Z,99164.22
2022-08-08T19:33:09.737Z,99172.50
2022-08-08T19:34:42.985Z,99167.94
2022-08-08T19:36:16.767Z,99166.25
2022-08-08T19:38:00.782Z,99166.91
2022-08-08T19:39:35.946Z,99166.25
2022-08-08T19:41:09.847Z,99161.81
2022-08-08T19:42:54.490Z,99168.84
2022-08-08T19:44:46.443Z,99167.78
2022-08-08T19:46:24.107Z,99171.31
2022-08-08T19:48:28.190Z,99167.66
2022-08-08T19:50:00.956Z,99159.47
2022-08-08T19:51:41.556Z,99173.19
2022-08-08T19:53:50.792Z,99172.66
2022-08-08T19:55:13.019Z,99163.03
2022-08-08T19:56:48.738Z,99171.13
2022-08-08T19:58:24.548Z,99173.16
2022-08-08T20:00:11.451Z,99181.97
2022-08-08T20:02:04.369Z,99175.91
2022-08-08T20:04:01.518Z,99179.44
2022-08-08T20:06:14.294Z,99182.88
2022-08-08T20:08:29.289Z,99188.69
2022-08-08T20:09:23.048Z,99187.38
2022-08-08T20:10:56.564Z,99191.31
2022-08-08T20:12:32.172Z,99187.22
2022-08-08T20:14:31.689Z,99191.56
2022-08-08T20:16:04.056Z,99190.06
2022-08-08T20:17:40.367Z,99192.03
2022-08-08T20:19:15.049Z,99196.84
2022-08-08T20:20:50.348Z,99190.38
2022-08-08T20:22:30.748Z,99198.44
2022-08-08T20:24:07.842Z,99200.69
2022-08-08T20:25:41.424Z,99193.53
2022-08-08T20:27:20.488Z,99195.25
2022-08-08T20:28:54.694Z,99195.94
2022-08-08T20:30:53.469Z,99200.72
2022-08-08T20:32:26.861Z,99193.16
2022-08-08T20:34:27.780Z,99185.06
2022-08-08T20:35:58.678Z,99187.59
2022-08-08T20:37:53.393Z,99190.13
2022-08-08T20:39:38.957Z,99191.84
2022-08-08T20:41:22.310Z,99186.41
2022-08-08T20:42:57.455Z,99180.97
2022-08-08T20:44:30.869Z,99180.63